Time;durP1;ratioP1;P1;durP2;ratioP2;P2;SDS_P1;SDS_P2;PMS_P1;PMS_P2;Temp;Humidity;BMP_temperature;BMP_pressure;BME280_temperature;BME280_humidity;BME280_pressure;Samples;Min_cycle;Max_cycle;Signal;HPM_P1;HPM_P2
2022/07/29 00:01:54;;;;;;;33.80;19.35;;;;;;;29.98;80.53;97910.63;5025857;28;20053;-73
2022/07/29 00:04:43;;;;;;;31.13;19.45;;;;;;;29.66;80.86;97912.66;4998095;28;20143;-73
2022/07/29 00:07:25;;;;;;;33.33;19.23;;;;;;;29.58;81.24;97914.47;5013281;28;20616;-72
2022/07/29 00:10:15;;;;;;;32.00;20.25;;;;;;;29.70;80.97;97916.31;5011141;28;20118;-73
2022/07/29 00:12:57;;;;;;;32.67;19.15;;;;;;;29.73;80.66;97926.69;5025481;28;20167;-73
2022/07/29 00:15:52;;;;;;;30.77;19.70;;;;;;;29.60;81.14;97920.44;5050639;28;20079;-71
2022/07/29 00:18:27;;;;;;;37.80;19.30;;;;;;;29.61;81.38;97919.25;5068172;28;20063;-71
2022/07/29 00:21:22;;;;;;;33.55;19.90;;;;;;;29.70;81.30;97915.50;5053007;28;20114;-73
2022/07/29 00:23:57;;;;;;;39.30;19.80;;;;;;;29.64;81.36;97913.00;5068169;28;20045;-72
2022/07/29 00:26:46;;;;;;;33.70;19.77;;;;;;;29.65;81.55;97909.06;5068087;28;20052;-70
2022/07/29 00:29:35;;;;;;;35.22;19.60;;;;;;;29.76;81.36;97909.34;5062410;28;20052;-72
2022/07/29 00:32:17;;;;;;;35.50;20.73;;;;;;;29.61;81.26;97912.94;5055399;28;20056;-72
2022/07/29 00:38:06;;;;;;;33.15;19.70;;;;;;;29.64;81.30;97912.22;5067033;28;20143;-74
2022/07/29 00:40:55;;;;;;;31.92;21.23;;;;;;;29.80;81.37;97913.00;5029805;28;20051;-74
2022/07/29 00:43:37;;;;;;;32.58;20.50;;;;;;;29.89;80.81;97917.53;5047567;28;20132;-74
2022/07/29 00:46:27;;;;;;;36.42;20.05;;;;;;;29.92;81.06;97920.38;5030035;28;20106;-75
2022/07/29 00:49:08;;;;;;;37.85;20.83;;;;;;;29.58;81.75;97922.75;5047237;28;20158;-75
2022/07/29 00:51:57;;;;;;;33.88;20.27;;;;;;;29.63;81.50;97927.19;5032203;28;20092;-75
2022/07/29 00:54:40;;;;;;;34.45;20.55;;;;;;;29.97;80.74;97922.06;5029762;28;20982;-73
2022/07/29 00:57:28;;;;;;;34.47;21.15;;;;;;;29.91;80.47;97926.28;5026567;28;20644;-75
2022/07/29 01:00:13;;;;;;;38.20;20.60;;;;;;;29.41;82.68;97926.69;5048576;28;20561;-74
2022/07/29 01:03:02;;;;;;;32.50;19.17;;;;;;;29.77;81.81;97929.50;5067359;28;20075;-75
2022/07/29 01:05:45;;;;;;;34.15;20.23;;;;;;;29.97;80.97;97930.34;5047941;28;20111;-75
2022/07/29 01:08:34;;;;;;;33.42;21.38;;;;;;;30.05;80.42;97930.13;5072480;28;20066;-73
2022/07/29 01:11:23;;;;;;;33.38;20.20;;;;;;;30.24;79.97;97925.78;5046802;28;20073;-72
2022/07/29 01:14:19;;;;;;;34.03;20.67;;;;;;;30.35;79.64;97934.34;5026321;28;20114;-75
2022/07/29 01:17:31;;;;;;;31.67;20.20;;;;;;;30.36;80.12;97930.41;5036368;28;20076;-74
2022/07/29 01:21:07;;;;;;;34.58;20.42;;;;;;;30.16;80.04;97927.59;5047244;28;20128;-74
2022/07/29 01:24:26;;;;;;;33.22;19.15;;;;;;;30.50;79.32;97930.69;4979868;28;20100;-74
2022/07/29 01:27:14;;;;;;;33.67;19.33;;;;;;;30.10;79.54;97928.28;5029194;28;20136;-74
2022/07/29 01:30:10;;;;;;;32.70;19.40;;;;;;;29.91;80.84;97927.06;5027025;28;20056;-72
2022/07/29 01:32:54;;;;;;;27.80;17.63;;;;;;;30.19;79.47;97935.19;5037758;28;20746;-72
2022/07/29 01:35:45;;;;;;;28.27;18.30;;;;;;;30.31;79.51;97925.16;5023809;28;20786;-72
2022/07/29 01:38:34;;;;;;;30.48;18.73;;;;;;;30.28;78.92;97934.97;4990936;28;20061;-72
2022/07/29 01:41:25;;;;;;;33.83;18.75;;;;;;;30.54;78.44;97930.78;5006651;28;20046;-72
2022/07/29 01:44:16;;;;;;;26.83;17.65;;;;;;;30.22;79.42;97941.97;5005801;28;20140;-74
2022/07/29 01:47:12;;;;;;;25.52;17.55;;;;;;;29.99;79.78;97950.16;4975163;28;20041;-75
2022/07/29 01:50:04;;;;;;;36.35;16.83;;;;;;;30.39;78.73;97952.63;5007062;28;20125;-75
2022/07/29 01:52:58;;;;;;;27.15;16.40;;;;;;;30.59;78.36;97967.28;4980068;28;20148;-75
2022/07/29 01:55:50;;;;;;;26.70;16.70;;;;;;;30.38;78.17;97955.75;5010508;28;20050;-73
2022/07/29 01:58:35;;;;;;;26.42;17.60;;;;;;;30.53;78.03;97971.50;5012535;28;20053;-74
2022/07/29 02:01:25;;;;;;;33.38;17.73;;;;;;;30.37;78.15;97974.34;5007627;28;20050;-75
2022/07/29 02:04:16;;;;;;;31.40;17.55;;;;;;;29.97;79.36;97980.16;5007041;28;20085;-75
2022/07/29 02:07:14;;;;;;;27.73;17.58;;;;;;;30.08;79.30;97989.50;4988913;28;20042;-73
2022/07/29 02:10:03;;;;;;;30.02;18.48;;;;;;;30.43;78.25;97991.47;5011273;28;20186;-73
2022/07/29 02:12:46;;;;;;;28.13;18.33;;;;;;;30.42;78.31;97995.38;5035706;28;20052;-73
2022/07/29 02:15:36;;;;;;;31.02;18.00;;;;;;;30.78;77.35;97990.56;5060999;28;20056;-73
2022/07/29 02:18:23;;;;;;;31.23;17.58;;;;;;;30.91;76.97;97994.03;5064640;28;20056;-73
2022/07/29 02:21:15;;;;;;;30.08;18.80;;;;;;;30.78;76.93;98001.66;5046136;28;20423;-74
2022/07/29 02:24:07;;;;;;;27.73;17.90;;;;;;;30.75;77.74;97999.63;5045807;28;20524;-74
2022/07/29 02:26:51;;;;;;;24.23;17.00;;;;;;;30.95;76.86;98003.19;5030696;28;20465;-74
2022/07/29 02:29:42;;;;;;;26.95;17.88;;;;;;;30.69;77.40;98009.38;5040321;28;20146;-75
2022/07/29 02:32:27;;;;;;;26.05;17.60;;;;;;;31.06;76.85;98017.25;5014585;28;20056;-74
2022/07/29 02:35:16;;;;;;;28.08;19.65;;;;;;;30.83;77.52;98020.75;5046265;28;20678;-74
2022/07/29 02:41:11;;;;;;;26.52;18.70;;;;;;;30.76;77.55;98026.16;5040120;28;20155;-75
2022/07/29 02:43:57;;;;;;;26.67;17.17;;;;;;;31.02;76.81;98029.06;5029705;28;20072;-74
2022/07/29 02:47:12;;;;;;;32.53;18.35;;;;;;;31.27;75.50;98028.72;5041643;28;20103;-72
2022/07/29 02:50:01;;;;;;;28.13;17.80;;;;;;;31.25;75.30;98039.38;5010013;28;20542;-74
2022/07/29 02:53:18;;;;;;;27.45;16.98;;;;;;;30.89;76.11;98040.66;5043742;28;20080;-75
2022/07/29 02:56:13;;;;;;;23.30;16.58;;;;;;;31.31;75.53;98045.44;5020209;28;20041;-75
2022/07/29 02:59:04;;;;;;;28.38;17.25;;;;;;;30.96;76.55;98041.63;5045847;28;20056;-74
2022/07/29 03:02:01;;;;;;;26.60;16.77;;;;;;;31.15;76.36;98048.31;5030784;28;20107;-76
2022/07/29 03:04:39;;;;;;;26.95;17.30;;;;;;;31.02;76.77;98045.69;5042681;28;20076;-73
2022/07/29 03:07:29;;;;;;;23.02;16.20;;;;;;;31.33;76.03;98060.53;5030857;28;20623;-74
2022/07/29 03:10:13;;;;;;;28.15;17.90;;;;;;;31.23;75.94;98055.59;5045826;28;20048;-73
2022/07/29 03:13:08;;;;;;;26.05;16.83;;;;;;;31.44;75.40;98059.94;5046233;28;20052;-72
2022/07/29 03:15:57;;;;;;;41.97;19.30;;;;;;;30.90;76.86;98069.97;5046165;28;20086;-75
2022/07/29 03:18:46;;;;;;;26.98;17.98;;;;;;;30.99;76.47;98062.25;5033380;28;20053;-75
2022/07/29 03:21:35;;;;;;;25.17;17.38;;;;;;;31.28;76.03;98068.34;5051746;28;20122;-75
2022/07/29 03:24:42;;;;;;;26.17;18.13;;;;;;;31.06;76.47;98076.25;5049373;28;20055;-75
2022/07/29 03:27:26;;;;;;;26.05;17.63;;;;;;;31.22;76.36;98070.59;5031414;28;20056;-75
2022/07/29 03:30:16;;;;;;;28.30;17.75;;;;;;;31.18;75.29;98080.84;5042087;28;20053;-77
2022/07/29 03:33:02;;;;;;;26.88;16.67;;;;;;;31.18;75.98;98080.84;5048205;28;20049;-76
2022/07/29 03:35:53;;;;;;;28.98;16.30;;;;;;;31.25;76.14;98075.44;5049141;28;20448;-75
2022/07/29 03:38:44;;;;;;;28.67;18.25;;;;;;;31.14;76.05;98080.75;5033630;28;20080;-75
2022/07/29 03:41:33;;;;;;;24.52;17.48;;;;;;;30.81;76.90;98084.03;5047070;28;20045;-76
2022/07/29 03:44:17;;;;;;;32.10;18.45;;;;;;;30.87;77.26;98082.56;5048997;28;20056;-76
2022/07/29 03:47:08;;;;;;;32.05;19.40;;;;;;;30.88;77.27;98084.19;5036362;28;20053;-75
2022/07/29 03:50:13;;;;;;;29.92;18.00;;;;;;;30.89;77.24;98091.31;5039359;28;20056;-75
2022/07/29 03:53:02;;;;;;;23.38;16.52;;;;;;;31.20;75.52;98082.09;5038417;28;20676;-75
2022/07/29 03:55:48;;;;;;;25.65;17.65;;;;;;;31.01;76.61;98091.22;5029406;28;20063;-75
2022/07/29 03:58:38;;;;;;;29.00;18.33;;;;;;;31.13;76.46;98092.25;5043015;28;20049;-75
2022/07/29 04:01:28;;;;;;;25.88;17.75;;;;;;;31.12;76.55;98099.72;5049892;28;20140;-75
2022/07/29 04:04:10;;;;;;;24.48;16.85;;;;;;;30.69;77.62;98103.53;5055858;28;20110;-75
2022/07/29 04:06:59;;;;;;;30.45;17.63;;;;;;;31.05;76.90;98123.72;5049818;28;20108;-76
2022/07/29 04:09:41;;;;;;;26.60;17.83;;;;;;;31.14;76.21;98121.53;5032537;28;20129;-75
2022/07/29 04:12:30;;;;;;;25.40;18.20;;;;;;;31.23;75.60;98113.81;5029990;28;20568;-75
2022/07/29 04:15:19;;;;;;;24.35;17.38;;;;;;;31.42;75.65;98115.75;5002317;28;20164;-75
2022/07/29 04:18:01;;;;;;;25.38;17.40;;;;;;;31.27;75.91;98124.97;5011255;28;20084;-76
2022/07/29 04:20:50;;;;;;;27.42;17.05;;;;;;;30.76;76.53;98126.66;5020805;28;20044;-75
2022/07/29 04:23:33;;;;;;;25.63;16.92;;;;;;;31.15;75.87;98125.94;5040742;28;20393;-78
2022/07/29 04:26:33;;;;;;;24.70;16.60;;;;;;;31.47;74.63;98120.22;5029176;28;20076;-75
2022/07/29 04:29:15;;;;;;;;;;;;;;;31.58;74.29;98116.47;5028884;28;20081;-76
2022/07/29 04:32:04;;;;;;;22.83;15.95;;;;;;;31.58;74.07;98115.66;5021814;28;20020;-74
2022/07/29 04:34:53;;;;;;;26.25;16.55;;;;;;;31.54;74.12;98112.81;5010915;28;20152;-76
2022/07/29 04:37:42;;;;;;;24.13;17.00;;;;;;;31.69;73.86;98108.34;4995717;28;20144;-73
2022/07/29 04:40:42;;;;;;;24.42;16.45;;;;;;;31.65;74.20;98110.25;5002551;28;20487;-75
2022/07/29 04:43:31;;;;;;;23.27;15.70;;;;;;;31.88;73.99;98106.69;4992233;28;20048;-76
2022/07/29 04:46:16;;;;;;;20.13;14.93;;;;;;;31.98;73.21;98108.81;5007320;28;20118;-77
2022/07/29 04:49:20;;;;;;;26.15;15.88;;;;;;;32.10;72.74;98111.44;5026601;28;20123;-74
2022/07/29 04:52:09;;;;;;;22.25;16.05;;;;;;;32.27;71.82;98117.63;5030110;28;20068;-76
2022/07/29 04:54:51;;;;;;;23.90;16.33;;;;;;;32.46;71.30;98111.97;5021201;28;20167;-75
2022/07/29 04:57:40;;;;;;;25.30;16.70;;;;;;;31.79;71.38;98113.25;5041517;28;20077;-75
2022/07/29 05:00:23;;;;;;;23.15;16.45;;;;;;;31.99;72.59;98118.78;5029171;28;20129;-74
2022/07/29 05:03:13;;;;;;;23.88;16.48;;;;;;;31.96;72.11;98119.50;5017258;28;20160;-73
2022/07/29 05:05:55;;;;;;;24.40;16.17;;;;;;;32.23;72.03;98116.78;5010903;28;20050;-72
2022/07/29 05:08:44;;;;;;;24.73;16.23;;;;;;;32.06;71.67;98118.91;5019537;28;20141;-71
2022/07/29 05:11:26;;;;;;;24.88;16.98;;;;;;;32.39;71.67;98126.56;5022785;28;20123;-71
2022/07/29 05:14:21;;;;;;;25.90;15.80;;;;;;;32.10;70.81;98117.00;5007733;28;20118;-71
2022/07/29 05:17:16;;;;;;;25.02;15.95;;;;;;;32.13;71.92;98127.34;5000533;28;20053;-74
2022/07/29 05:20:06;;;;;;;23.05;15.85;;;;;;;32.25;70.51;98122.75;4997138;28;20125;-74
2022/07/29 05:22:48;;;;;;;19.30;14.52;;;;;;;32.32;70.52;98128.44;4995713;28;20050;-74
2022/07/29 05:25:37;;;;;;;19.33;14.52;;;;;;;32.78;69.73;98125.53;4983661;28;20151;-74
2022/07/29 05:28:24;;;;;;;24.23;15.48;;;;;;;32.27;71.23;98125.97;4989462;28;20058;-73
2022/07/29 05:35:39;;;;;;;22.00;13.98;;;;;;;32.65;69.29;98113.06;4988377;28;20923;-73
2022/07/29 05:38:21;;;;;;;23.83;14.77;;;;;;;33.05;69.79;98112.38;4994750;28;20070;-74
2022/07/29 05:41:10;;;;;;;19.75;14.07;;;;;;;33.16;70.49;98118.13;4998453;28;20050;-73
2022/07/29 05:43:52;;;;;;;18.77;13.10;;;;;;;33.11;69.45;98105.34;4985727;28;20039;-73
2022/07/29 05:46:47;;;;;;;19.60;14.05;;;;;;;33.31;68.95;98102.41;4634650;28;10000346;-76
2022/07/29 05:49:23;;;;;;;18.55;13.80;;;;;;;33.05;68.67;98103.25;4983589;28;20493;-73
2022/07/29 05:52:18;;;;;;;17.17;12.53;;;;;;;33.47;68.77;98089.03;4645781;28;10000048;-73
2022/07/29 05:54:54;;;;;;;15.18;12.35;;;;;;;33.53;69.11;98087.53;5003527;28;20147;-75
2022/07/29 05:57:45;;;;;;;17.58;12.68;;;;;;;33.49;68.35;98089.44;4987450;28;20413;-73
2022/07/29 06:00:27;;;;;;;21.30;13.32;;;;;;;33.09;68.98;98085.41;4989242;28;20057;-74
2022/07/29 06:03:16;;;;;;;21.35;13.88;;;;;;;32.86;68.25;98088.31;4996122;28;20424;-73
2022/07/29 06:06:07;;;;;;;20.20;12.85;;;;;;;33.43;68.81;98071.50;5002952;28;20072;-73
2022/07/29 06:08:48;;;;;;;18.20;12.98;;;;;;;33.34;67.01;98065.47;5006170;28;20049;-73
2022/07/29 06:11:37;;;;;;;16.70;11.43;;;;;;;34.00;65.37;98060.09;4997182;28;20042;-74
2022/07/29 06:14:19;;;;;;;15.85;10.70;;;;;;;33.44;65.98;98058.41;5006528;28;20058;-72
2022/07/29 06:17:15;;;;;;;16.55;11.25;;;;;;;33.49;66.03;98058.06;5026695;28;20030;-74
2022/07/29 06:20:05;;;;;;;16.15;11.00;;;;;;;33.61;65.39;98048.63;5025741;28;20049;-72
2022/07/29 06:22:55;;;;;;;17.88;11.30;;;;;;;33.59;64.92;98045.44;5013630;28;20081;-72
2022/07/29 06:25:39;;;;;;;16.23;11.98;;;;;;;33.26;66.33;98050.69;5008658;28;20057;-70
2022/07/29 06:28:28;;;;;;;15.05;11.30;;;;;;;33.77;65.54;98051.19;5027626;28;20080;-73
2022/07/29 06:31:16;;;;;;;16.52;12.75;;;;;;;33.65;65.46;98043.91;5029668;28;20475;-72
2022/07/29 06:33:58;;;;;;;17.75;11.63;;;;;;;34.24;64.03;98050.38;5008268;28;20071;-72
2022/07/29 06:36:41;;;;;;;15.65;11.90;;;;;;;33.84;65.15;98035.34;5024896;28;20045;-74
2022/07/29 06:39:29;;;;;;;13.90;11.07;;;;;;;33.98;65.15;98045.78;5024607;28;20123;-74
2022/07/29 06:42:19;;;;;;;14.90;11.88;;;;;;;33.78;65.19;98044.44;5019638;28;20045;-74
2022/07/29 06:45:03;;;;;;;14.68;12.02;;;;;;;34.13;66.13;98041.91;5006449;28;20092;-75
2022/07/29 06:47:51;;;;;;;17.48;11.20;;;;;;;33.94;64.93;98042.97;5025058;28;20622;-75
2022/07/29 06:50:33;;;;;;;17.67;11.27;;;;;;;33.89;62.93;98042.53;5033656;28;20049;-73
2022/07/29 06:53:22;;;;;;;19.17;10.65;;;;;;;34.02;64.28;98043.81;5040520;28;20053;-73
2022/07/29 06:56:08;;;;;;;17.98;12.30;;;;;;;33.72;64.21;98042.00;5018089;28;20073;-74
2022/07/29 06:58:56;;;;;;;14.00;10.98;;;;;;;33.85;64.09;98030.56;4996891;28;20742;-73
2022/07/29 07:01:40;;;;;;;15.07;10.35;;;;;;;33.31;64.10;98030.88;5008342;28;20470;-72
2022/07/29 07:04:29;;;;;;;16.13;10.18;;;;;;;33.78;64.10;98024.94;5024840;28;20550;-74
2022/07/29 07:07:18;;;;;;;17.20;10.55;;;;;;;33.46;64.39;98025.44;5022759;28;20651;-73
2022/07/29 07:10:00;;;;;;;16.33;10.00;;;;;;;33.79;65.19;98018.22;5028908;28;20045;-72
2022/07/29 07:12:49;;;;;;;15.93;11.95;;;;;;;33.91;64.75;98013.09;5023371;28;20077;-73
2022/07/29 07:15:38;;;;;;;14.77;10.25;;;;;;;33.86;64.24;98007.09;5590744;22;20118;-73
2022/07/29 07:18:34;;;;;;;12.55;10.32;;;;;;;33.49;64.49;98010.78;5010564;28;20070;-75
2022/07/29 07:21:30;;;;;;;14.85;10.45;;;;;;;33.33;66.16;98003.47;5015969;28;20675;-74
2022/07/29 07:24:06;;;;;;;21.60;11.52;;;;;;;33.34;66.36;98002.31;5048043;28;20057;-71
2022/07/29 07:26:55;;;;;;;15.50;11.57;;;;;;;32.84;67.73;97998.97;5029818;28;20077;-72
2022/07/29 07:29:40;;;;;;;17.15;10.68;;;;;;;33.14;68.32;97993.38;5043885;28;20155;-71
2022/07/29 07:32:29;;;;;;;13.73;10.90;;;;;;;33.02;67.77;97990.84;5049175;28;20045;-72
2022/07/29 07:35:13;;;;;;;14.63;10.60;;;;;;;33.19;67.55;97986.69;5048625;28;20152;-72
2022/07/29 07:38:02;;;;;;;14.50;10.20;;;;;;;33.10;66.91;97988.94;5022805;28;20069;-74
2022/07/29 07:40:46;;;;;;;16.48;10.63;;;;;;;33.01;68.21;97989.22;5047570;28;20049;-71
2022/07/29 07:43:40;;;;;;;14.95;10.48;;;;;;;33.07;68.89;97981.34;5048937;28;20041;-71
2022/07/29 07:46:35;;;;;;;16.00;10.45;;;;;;;32.61;69.39;97967.75;5049668;28;20045;-73
2022/07/29 07:49:13;;;;;;;14.73;11.13;;;;;;;32.39;69.96;97964.72;5029829;28;20056;-74
2022/07/29 07:52:01;;;;;;;15.55;10.80;;;;;;;32.77;70.90;97965.53;5028712;28;20084;-70
2022/07/29 07:54:51;;;;;;;16.63;11.60;;;;;;;32.54;72.78;97954.53;5029056;28;20604;-72
2022/07/29 07:57:32;;;;;;;19.67;12.25;;;;;;;32.33;72.86;97949.53;5050904;28;20561;-74
2022/07/29 08:00:23;;;;;;;15.50;10.07;;;;;;;31.71;72.92;97938.75;5032938;28;20087;-75
2022/07/29 08:03:05;;;;;;;12.93;9.95;;;;;;;31.90;71.09;97937.84;5035797;28;20113;-73
2022/07/29 08:05:57;;;;;;;9.43;8.05;;;;;;;31.84;72.37;97929.03;5029871;28;20073;-72
2022/07/29 08:08:38;;;;;;;10.50;8.48;;;;;;;32.33;71.31;97921.75;5031236;28;20053;-75
2022/07/29 08:11:28;;;;;;;8.75;7.65;;;;;;;32.51;69.93;97924.78;5028382;28;20077;-73
2022/07/29 08:14:17;;;;;;;10.32;8.93;;;;;;;32.97;68.99;97925.25;5045520;28;20049;-72
2022/07/29 08:17:12;;;;;;;11.95;8.77;;;;;;;32.92;69.01;97924.81;5048468;28;20424;-74
2022/07/29 08:20:07;;;;;;;13.25;8.68;;;;;;;33.03;68.01;97908.25;5048011;28;20060;-74
2022/07/29 08:23:02;;;;;;;12.30;8.13;;;;;;;32.78;67.40;97915.16;5047547;28;20176;-75
2022/07/29 08:25:38;;;;;;;13.55;8.50;;;;;;;32.97;67.87;97894.69;5036985;28;20060;-73
2022/07/29 08:28:30;;;;;;;10.77;8.68;;;;;;;33.04;67.99;97888.41;5037713;28;20071;-72
2022/07/29 08:31:12;;;;;;;12.45;8.73;;;;;;;32.97;67.75;97878.00;5038993;28;20056;-72
2022/07/29 08:34:02;;;;;;;9.30;8.38;;;;;;;32.51;69.23;97878.34;5036364;28;20133;-73
2022/07/29 08:36:44;;;;;;;10.75;8.32;;;;;;;32.67;69.38;97886.47;5047241;28;20143;-72
2022/07/29 08:39:33;;;;;;;12.07;8.85;;;;;;;31.76;71.19;97885.75;5048136;28;20144;-72
2022/07/29 08:42:22;;;;;;;13.68;9.82;;;;;;;31.80;72.96;97890.16;5045026;28;20072;-71
2022/07/29 08:45:06;;;;;;;17.55;11.10;;;;;;;32.15;74.54;97883.47;5031616;28;20154;-71
2022/07/29 08:47:49;;;;;;;16.48;9.60;;;;;;;31.83;74.87;97879.47;5032292;28;20052;-71
2022/07/29 08:50:37;;;;;;;15.90;10.13;;;;;;;31.00;76.37;97881.78;5028335;28;20151;-71
2022/07/29 08:53:19;;;;;;;15.02;9.18;;;;;;;31.20;77.40;97884.47;5031470;28;20049;-70
2022/07/29 08:56:08;;;;;;;15.02;9.73;;;;;;;31.11;78.62;97886.69;5048073;28;20049;-72
2022/07/29 08:58:59;;;;;;;13.90;9.90;;;;;;;30.57;79.84;97908.69;5036187;28;20637;-72
2022/07/29 09:01:45;;;;;;;18.10;11.10;;;;;;;30.55;79.32;97924.06;5023472;28;20044;-73
2022/07/29 09:04:35;;;;;;;25.88;12.30;;;;;;;30.10;81.59;97929.06;5036620;28;20045;-71
2022/07/29 09:07:22;;;;;;;22.98;13.45;;;;;;;29.74;81.39;97927.47;5037457;28;20136;-70
2022/07/29 09:10:14;;;;;;;25.33;13.85;;;;;;;29.68;83.11;97910.34;5043047;28;20053;-72
2022/07/29 09:13:03;;;;;;;18.88;13.18;;;;;;;29.50;83.15;97900.81;5034947;28;20065;-73
2022/07/29 09:15:45;;;;;;;20.23;12.43;;;;;;;29.33;83.65;97885.41;5033659;28;20049;-74
2022/07/29 09:18:54;;;;;;;15.32;10.65;;;;;;;29.39;83.27;97879.28;5032487;28;20139;-72
2022/07/29 09:21:59;;;;;;;17.42;11.18;;;;;;;29.41;83.50;97871.41;5039396;28;20056;-72
2022/07/29 09:24:47;;;;;;;18.75;13.32;;;;;;;29.50;84.15;97871.19;5035819;28;20140;-72
2022/07/29 09:27:32;;;;;;;15.50;11.63;;;;;;;29.62;83.50;97867.53;5041004;28;20055;-74
2022/07/29 09:30:22;;;;;;;14.38;9.07;;;;;;;29.63;83.35;97867.16;5044944;28;20146;-73
2022/07/29 09:33:11;;;;;;;9.93;8.02;;;;;;;29.67;82.96;97857.00;5040608;28;20060;-73
2022/07/29 09:36:06;;;;;;;9.35;7.18;;;;;;;29.42;82.35;97850.91;5027371;28;20128;-72
2022/07/29 09:38:48;;;;;;;9.07;6.63;;;;;;;29.39;82.73;97839.78;5017916;28;20045;-73
2022/07/29 09:42:05;;;;;;;16.35;8.48;;;;;;;29.71;82.78;97834.13;5045615;28;20141;-75
2022/07/29 09:44:50;;;;;;;12.18;9.60;;;;;;;29.58;82.91;97837.03;5043273;28;20506;-74
2022/07/29 09:47:48;;;;;;;17.70;12.45;;;;;;;29.40;83.76;97835.84;5026508;28;20250;-74
2022/07/29 09:50:49;;;;;;;20.67;14.38;;;;;;;29.61;83.77;97830.78;5039828;28;20053;-73
2022/07/29 09:53:39;;;;;;;21.55;14.35;;;;;;;29.63;84.20;97838.72;5012155;28;20056;-72
2022/07/29 09:56:45;;;;;;;22.88;15.05;;;;;;;29.61;84.00;97847.38;5046392;28;20053;-73
2022/07/29 09:59:34;;;;;;;22.75;15.77;;;;;;;29.40;83.77;97852.44;5045480;28;20106;-73
2022/07/29 10:02:38;;;;;;;25.55;16.20;;;;;;;29.55;83.17;97854.34;5045601;28;20041;-76
2022/07/29 10:05:30;;;;;;;22.48;15.57;;;;;;;29.66;82.79;97843.53;5045936;28;20049;-73
2022/07/29 10:08:17;;;;;;;20.67;15.23;;;;;;;29.44;82.43;97826.44;5046123;28;20737;-74
2022/07/29 10:11:17;;;;;;;25.83;16.65;;;;;;;29.30;82.56;97815.09;5045349;28;20649;-73
2022/07/29 10:14:26;;;;;;;20.15;15.25;;;;;;;29.32;82.45;97815.53;5046643;28;20049;-71
2022/07/29 10:17:10;;;;;;;22.67;14.90;;;;;;;29.52;82.68;97815.56;5046511;28;20045;-74
2022/07/29 10:20:05;;;;;;;20.98;15.25;;;;;;;29.60;82.69;97822.88;5031453;28;20492;-75
2022/07/29 10:23:03;;;;;;;21.65;13.85;;;;;;;29.53;82.85;97833.75;5006324;28;20050;-76
2022/07/29 10:25:52;;;;;;;20.63;15.18;;;;;;;29.41;83.72;97832.72;5024081;28;20077;-74
2022/07/29 10:28:34;;;;;;;23.63;15.15;;;;;;;29.33;84.20;97838.44;5029818;28;20045;-73
2022/07/29 10:31:34;;;;;;;23.17;14.98;;;;;;;29.41;84.64;97831.94;5029464;28;20055;-75
2022/07/29 10:35:02;;;;;;;21.30;14.55;;;;;;;29.47;83.15;97819.41;4996533;28;20564;-76
2022/07/29 10:38:21;;;;;;;20.58;14.20;;;;;;;29.60;83.27;97811.81;5009015;28;20538;-72
2022/07/29 10:41:34;;;;;;;22.73;14.52;;;;;;;29.48;84.34;97804.41;4989898;28;20434;-71
2022/07/29 10:44:25;;;;;;;;;;;;;;;29.52;83.22;97802.53;4991082;28;20129;-69
2022/07/29 10:47:14;;;;;;;18.65;12.95;;;;;;;29.67;83.43;97789.81;4991151;28;19921;-72
2022/07/29 10:50:05;;;;;;;19.05;12.98;;;;;;;29.60;81.91;97795.22;4991343;28;20042;-74
2022/07/29 10:53:14;;;;;;;20.92;12.50;;;;;;;29.61;83.06;97805.88;4991825;28;20144;-71
2022/07/29 10:55:56;;;;;;;16.52;12.27;;;;;;;29.79;82.80;97814.63;4990200;28;20054;-72
2022/07/29 10:58:46;;;;;;;18.92;13.88;;;;;;;29.68;81.91;97816.31;4990753;28;20065;-71
2022/07/29 11:01:37;;;;;;;18.83;12.35;;;;;;;29.55;82.49;97809.31;4975127;28;20128;-70
2022/07/29 11:05:08;;;;;;;17.50;12.30;;;;;;;29.61;82.86;97794.84;4989945;28;20148;-69
2022/07/29 11:08:22;;;;;;;22.35;12.88;;;;;;;29.79;82.65;97786.97;4988834;28;20051;-69
2022/07/29 11:11:19;;;;;;;20.50;11.48;;;;;;;29.96;82.63;97784.88;4989898;28;20054;-69
2022/07/29 11:14:09;;;;;;;16.77;11.90;;;;;;;29.88;82.48;97783.94;4990034;28;20112;-70
2022/07/29 11:17:11;;;;;;;18.23;12.60;;;;;;;29.84;82.42;97789.41;4989653;28;20133;-70
2022/07/29 11:20:45;;;;;;;19.15;11.98;;;;;;;29.81;81.53;97779.09;4986533;28;20144;-71
2022/07/29 11:23:39;;;;;;;19.58;13.85;;;;;;;30.04;81.78;97781.91;4987042;28;20057;-72
2022/07/29 11:26:28;;;;;;;19.10;12.82;;;;;;;30.10;80.36;97779.66;4970916;28;20078;-70
2022/07/29 11:29:24;;;;;;;21.20;15.30;;;;;;;30.10;81.32;97785.19;4963586;28;20070;-75
2022/07/29 11:32:21;;;;;;;21.60;15.85;;;;;;;30.08;81.48;97776.44;4983442;28;20075;-72
2022/07/29 11:35:21;;;;;;;23.48;16.55;;;;;;;30.10;81.18;97773.31;4982065;28;20137;-75
2022/07/29 11:38:46;;;;;;;25.15;18.60;;;;;;;30.15;80.34;97773.81;4971877;28;20042;-74
2022/07/29 11:41:37;;;;;;;29.25;19.73;;;;;;;30.25;81.33;97764.91;4985645;28;20120;-76
2022/07/29 11:44:19;;;;;;;29.25;19.50;;;;;;;30.18;81.64;97770.31;4979975;28;20050;-76
2022/07/29 11:47:09;;;;;;;27.55;18.80;;;;;;;30.26;81.45;97760.94;4981223;28;20047;-74
2022/07/29 11:49:52;;;;;;;27.08;18.98;;;;;;;30.38;81.44;97767.50;4980459;28;20149;-76
2022/07/29 11:52:46;;;;;;;25.77;18.67;;;;;;;30.51;81.07;97768.13;4977407;28;20492;-77
2022/07/29 11:55:34;;;;;;;27.88;19.33;;;;;;;30.57;80.44;97764.69;4969341;28;20046;-76
2022/07/29 11:58:31;;;;;;;28.45;17.67;;;;;;;30.26;80.21;97763.72;4989552;28;20465;-75
2022/07/29 12:01:14;;;;;;;24.55;17.50;;;;;;;30.06;80.56;97762.97;4988905;28;20132;-74
2022/07/29 12:04:04;;;;;;;27.15;17.75;;;;;;;30.45;80.22;97767.66;4988865;28;20043;-75
2022/07/29 12:06:46;;;;;;;28.20;17.95;;;;;;;30.61;80.29;97765.56;4989265;28;20057;-74
2022/07/29 12:09:36;;;;;;;28.85;17.83;;;;;;;30.68;80.13;97770.41;4988994;28;20038;-77
2022/07/29 12:12:26;;;;;;;28.15;18.45;;;;;;;30.61;79.43;97771.09;4988901;28;20060;-74
2022/07/29 12:15:20;;;;;;;29.35;18.98;;;;;;;30.61;79.53;97773.88;4989206;28;20531;-73
2022/07/29 12:18:02;;;;;;;31.00;20.67;;;;;;;30.47;79.90;97773.59;4989158;28;20074;-75
2022/07/29 12:20:59;;;;;;;35.20;26.42;;;;;;;30.64;79.92;97769.53;4989573;28;20065;-77
2022/07/29 12:24:02;;;;;;;44.17;31.65;;;;;;;30.68;80.19;97764.06;5004106;28;20045;-77
2022/07/29 12:26:54;;;;;;;49.13;32.22;;;;;;;30.70;79.71;97759.75;4995480;28;20053;-77
2022/07/29 12:29:43;;;;;;;46.70;31.75;;;;;;;29.86;83.08;97753.09;5003823;28;20154;-77
2022/07/29 12:32:36;;;;;;;42.22;29.67;;;;;;;30.45;81.66;97756.56;5011657;28;20050;-74
2022/07/29 12:35:26;;;;;;;33.10;23.77;;;;;;;30.56;80.68;97760.31;5001003;28;20137;-75
2022/07/29 12:38:16;;;;;;;31.20;21.05;;;;;;;30.49;80.15;97760.19;5009117;28;21154;-75
2022/07/29 12:41:04;;;;;;;31.48;21.58;;;;;;;30.23;81.19;97772.78;4989622;28;20166;-72
2022/07/29 12:43:54;;;;;;;30.35;18.17;;;;;;;30.31;81.19;97778.44;4991536;28;20154;-75
2022/07/29 12:46:46;;;;;;;25.52;18.35;;;;;;;30.14;81.05;97785.25;4988693;28;20112;-70
2022/07/29 12:49:29;;;;;;;22.48;15.73;;;;;;;30.32;80.68;97791.13;4988549;28;20062;-71
2022/07/29 12:52:51;;;;;;;20.83;14.02;;;;;;;30.00;81.49;97797.66;5001550;28;20731;-70
2022/07/29 12:55:48;;;;;;;17.75;12.90;;;;;;;30.05;81.24;97800.09;4967283;28;20060;-71
2022/07/29 12:58:47;;;;;;;17.80;12.82;;;;;;;30.40;81.13;97798.38;5000171;28;20046;-75
2022/07/29 13:01:37;;;;;;;15.57;11.18;;;;;;;30.24;79.93;97796.50;4991847;28;20077;-73
2022/07/29 13:04:36;;;;;;;17.75;11.65;;;;;;;29.96;80.90;97788.47;4992586;28;20050;-73
2022/07/29 13:07:26;;;;;;;17.65;12.23;;;;;;;30.17;80.69;97785.31;5008393;28;20050;-73
2022/07/29 13:10:41;;;;;;;15.00;10.82;;;;;;;29.65;81.12;97783.84;5008002;28;20057;-74
2022/07/29 13:13:30;;;;;;;15.40;10.68;;;;;;;30.04;80.87;97787.44;4990678;28;20056;-73
2022/07/29 13:16:14;;;;;;;18.40;10.75;;;;;;;29.71;81.09;97801.75;4988593;28;20050;-73
2022/07/29 13:19:06;;;;;;;17.80;11.15;;;;;;;30.02;81.48;97797.28;4971476;28;20058;-75